Peachland, North Carolina
Current Conditions -  °F | °C
As of 4:35 PM on Wednesday 26 Nov 2014 (Local Time) from KAFP Reporting Station
Overcast Overcast  
Wind Chill: 50°   Ceiling: 3000
Heat Index: 50°   Visibility: 10mi
Dew Point: 43°   Wind: 0mph
Humidity: 78%   Direction: NA
Pressure: 30.02"   Gusts: NA
Location:  34.99°N, 80.26°W
Report Text: KAFP 262135Z AUTO 00000KT 10SM OVC030 10/06 A3002 RMK AO2 T01000063
Loading
Personal Weather Stations






























Interactive Weather Map New forecast layout! Learn more

10-Day Weather Forecast

Advertisements
Track Severe Weather on mobile